sensor_id;sensor_type;location;lat;lon;timestamp;P1;durP1;ratioP1;P2;durP2;ratioP2
4080;SDS011;2055;50.074;8.436;2023-05-31T00:01:40;0.90;;;0.80;;
4080;SDS011;2055;50.074;8.436;2023-05-31T00:04:06;1.27;;;1.17;;
4080;SDS011;2055;50.074;8.436;2023-05-31T00:06:33;1.27;;;1.08;;
4080;SDS011;2055;50.074;8.436;2023-05-31T00:08:58;0.90;;;0.80;;
4080;SDS011;2055;50.074;8.436;2023-05-31T00:11:24;1.10;;;1.00;;
4080;SDS011;2055;50.074;8.436;2023-05-31T00:13:51;14.73;;;2.30;;
4080;SDS011;2055;50.074;8.436;2023-05-31T00:16:17;0.80;;;0.70;;
4080;SDS011;2055;50.074;8.436;2023-05-31T00:18:43;1.45;;;1.35;;
4080;SDS011;2055;50.074;8.436;2023-05-31T00:21:09;0.90;;;0.80;;
4080;SDS011;2055;50.074;8.436;2023-05-31T00:23:34;0.90;;;0.80;;
4080;SDS011;2055;50.074;8.436;2023-05-31T00:26:00;1.80;;;1.60;;
4080;SDS011;2055;50.074;8.436;2023-05-31T00:28:26;0.80;;;0.70;;
4080;SDS011;2055;50.074;8.436;2023-05-31T00:30:51;0.90;;;0.80;;
4080;SDS011;2055;50.074;8.436;2023-05-31T00:33:17;0.87;;;0.77;;
4080;SDS011;2055;50.074;8.436;2023-05-31T00:35:42;1.20;;;1.10;;
4080;SDS011;2055;50.074;8.436;2023-05-31T00:38:08;1.10;;;1.00;;
4080;SDS011;2055;50.074;8.436;2023-05-31T00:40:34;7.80;;;1.73;;
4080;SDS011;2055;50.074;8.436;2023-05-31T00:43:00;1.15;;;1.08;;
4080;SDS011;2055;50.074;8.436;2023-05-31T00:45:26;0.70;;;0.60;;
4080;SDS011;2055;50.074;8.436;2023-05-31T00:47:53;4.22;;;0.98;;
4080;SDS011;2055;50.074;8.436;2023-05-31T00:50:19;1.40;;;1.30;;
4080;SDS011;2055;50.074;8.436;2023-05-31T00:52:46;1.00;;;0.90;;
4080;SDS011;2055;50.074;8.436;2023-05-31T00:55:13;1.35;;;1.10;;
4080;SDS011;2055;50.074;8.436;2023-05-31T00:57:39;1.00;;;0.90;;
4080;SDS011;2055;50.074;8.436;2023-05-31T01:00:05;1.23;;;1.13;;
4080;SDS011;2055;50.074;8.436;2023-05-31T01:02:33;2.72;;;2.53;;
4080;SDS011;2055;50.074;8.436;2023-05-31T01:04:59;1.08;;;1.00;;
4080;SDS011;2055;50.074;8.436;2023-05-31T01:07:26;1.35;;;1.25;;
4080;SDS011;2055;50.074;8.436;2023-05-31T01:09:51;0.77;;;0.67;;
4080;SDS011;2055;50.074;8.436;2023-05-31T01:12:29;1.00;;;0.90;;
4080;SDS011;2055;50.074;8.436;2023-05-31T01:18:14;0.90;;;0.80;;
4080;SDS011;2055;50.074;8.436;2023-05-31T01:20:52;1.02;;;0.93;;
4080;SDS011;2055;50.074;8.436;2023-05-31T01:28:55;4.93;;;1.98;;
4080;SDS011;2055;50.074;8.436;2023-05-31T01:31:25;2.05;;;1.33;;
4080;SDS011;2055;50.074;8.436;2023-05-31T01:33:54;8.43;;;1.92;;
4080;SDS011;2055;50.074;8.436;2023-05-31T01:36:20;2.43;;;2.23;;
4080;SDS011;2055;50.074;8.436;2023-05-31T01:38:45;0.90;;;0.80;;
4080;SDS011;2055;50.074;8.436;2023-05-31T01:41:11;1.33;;;0.80;;
4080;SDS011;2055;50.074;8.436;2023-05-31T01:43:39;0.77;;;0.68;;
4080;SDS011;2055;50.074;8.436;2023-05-31T01:46:06;3.83;;;2.90;;
4080;SDS011;2055;50.074;8.436;2023-05-31T01:48:33;0.70;;;0.60;;
4080;SDS011;2055;50.074;8.436;2023-05-31T01:50:59;3.10;;;1.07;;
4080;SDS011;2055;50.074;8.436;2023-05-31T01:53:26;0.70;;;0.60;;
4080;SDS011;2055;50.074;8.436;2023-05-31T01:55:51;0.70;;;0.60;;
4080;SDS011;2055;50.074;8.436;2023-05-31T01:58:18;0.90;;;0.80;;
4080;SDS011;2055;50.074;8.436;2023-05-31T02:00:45;1.00;;;0.90;;
4080;SDS011;2055;50.074;8.436;2023-05-31T02:03:11;7.53;;;1.00;;
4080;SDS011;2055;50.074;8.436;2023-05-31T02:05:37;0.80;;;0.80;;
4080;SDS011;2055;50.074;8.436;2023-05-31T02:08:18;0.80;;;0.70;;
4080;SDS011;2055;50.074;8.436;2023-05-31T02:10:43;0.90;;;0.80;;
4080;SDS011;2055;50.074;8.436;2023-05-31T02:13:09;0.90;;;0.80;;
4080;SDS011;2055;50.074;8.436;2023-05-31T02:15:35;3.60;;;1.37;;
4080;SDS011;2055;50.074;8.436;2023-05-31T02:18:02;1.42;;;1.35;;
4080;SDS011;2055;50.074;8.436;2023-05-31T02:20:28;1.33;;;1.00;;
4080;SDS011;2055;50.074;8.436;2023-05-31T02:22:53;0.90;;;0.80;;
4080;SDS011;2055;50.074;8.436;2023-05-31T02:25:19;0.80;;;0.70;;
4080;SDS011;2055;50.074;8.436;2023-05-31T02:27:44;2.00;;;1.90;;
4080;SDS011;2055;50.074;8.436;2023-05-31T02:30:10;0.80;;;0.70;;
4080;SDS011;2055;50.074;8.436;2023-05-31T02:32:36;1.00;;;0.90;;
4080;SDS011;2055;50.074;8.436;2023-05-31T02:35:06;3.45;;;1.02;;
4080;SDS011;2055;50.074;8.436;2023-05-31T02:37:33;2.40;;;0.95;;
4080;SDS011;2055;50.074;8.436;2023-05-31T02:39:59;2.25;;;1.88;;
4080;SDS011;2055;50.074;8.436;2023-05-31T02:42:25;0.80;;;0.70;;
4080;SDS011;2055;50.074;8.436;2023-05-31T02:44:50;0.70;;;0.60;;
4080;SDS011;2055;50.074;8.436;2023-05-31T02:47:16;0.70;;;0.60;;
4080;SDS011;2055;50.074;8.436;2023-05-31T02:49:42;0.87;;;0.77;;
4080;SDS011;2055;50.074;8.436;2023-05-31T02:52:07;0.70;;;0.60;;
4080;SDS011;2055;50.074;8.436;2023-05-31T02:54:33;0.80;;;0.70;;
4080;SDS011;2055;50.074;8.436;2023-05-31T02:56:58;0.70;;;0.60;;
4080;SDS011;2055;50.074;8.436;2023-05-31T02:59:24;0.70;;;0.60;;
4080;SDS011;2055;50.074;8.436;2023-05-31T03:01:50;0.80;;;0.70;;
4080;SDS011;2055;50.074;8.436;2023-05-31T03:04:16;0.80;;;0.70;;
4080;SDS011;2055;50.074;8.436;2023-05-31T03:06:41;1.00;;;0.90;;
4080;SDS011;2055;50.074;8.436;2023-05-31T03:09:07;1.00;;;0.90;;
4080;SDS011;2055;50.074;8.436;2023-05-31T03:11:33;1.10;;;1.00;;
4080;SDS011;2055;50.074;8.436;2023-05-31T03:13:59;1.13;;;1.03;;
4080;SDS011;2055;50.074;8.436;2023-05-31T03:16:24;1.03;;;0.93;;
4080;SDS011;2055;50.074;8.436;2023-05-31T03:18:50;1.00;;;0.90;;
4080;SDS011;2055;50.074;8.436;2023-05-31T03:21:16;1.00;;;0.90;;
4080;SDS011;2055;50.074;8.436;2023-05-31T03:23:43;0.90;;;0.80;;
4080;SDS011;2055;50.074;8.436;2023-05-31T03:26:08;0.95;;;0.85;;
4080;SDS011;2055;50.074;8.436;2023-05-31T03:28:34;1.00;;;0.90;;
4080;SDS011;2055;50.074;8.436;2023-05-31T03:31:00;0.90;;;0.80;;
4080;SDS011;2055;50.074;8.436;2023-05-31T03:33:25;2.17;;;1.43;;
4080;SDS011;2055;50.074;8.436;2023-05-31T03:35:51;1.23;;;1.13;;
4080;SDS011;2055;50.074;8.436;2023-05-31T03:38:16;7.10;;;1.93;;
4080;SDS011;2055;50.074;8.436;2023-05-31T03:40:42;1.10;;;1.00;;
4080;SDS011;2055;50.074;8.436;2023-05-31T03:43:07;2.00;;;0.77;;
4080;SDS011;2055;50.074;8.436;2023-05-31T03:45:33;1.10;;;1.00;;
4080;SDS011;2055;50.074;8.436;2023-05-31T03:47:58;2.60;;;1.00;;
4080;SDS011;2055;50.074;8.436;2023-05-31T03:50:24;0.77;;;0.67;;
4080;SDS011;2055;50.074;8.436;2023-05-31T03:52:49;0.90;;;0.80;;
4080;SDS011;2055;50.074;8.436;2023-05-31T03:55:15;0.90;;;0.80;;
4080;SDS011;2055;50.074;8.436;2023-05-31T03:57:41;1.00;;;0.90;;
4080;SDS011;2055;50.074;8.436;2023-05-31T04:00:06;1.00;;;0.90;;
4080;SDS011;2055;50.074;8.436;2023-05-31T04:02:36;0.93;;;0.82;;
4080;SDS011;2055;50.074;8.436;2023-05-31T04:05:02;0.80;;;0.70;;
4080;SDS011;2055;50.074;8.436;2023-05-31T04:07:29;1.10;;;1.00;;
4080;SDS011;2055;50.074;8.436;2023-05-31T04:09:54;1.10;;;1.00;;
4080;SDS011;2055;50.074;8.436;2023-05-31T04:12:20;1.10;;;1.00;;
4080;SDS011;2055;50.074;8.436;2023-05-31T04:14:45;1.47;;;1.37;;
4080;SDS011;2055;50.074;8.436;2023-05-31T04:17:11;1.00;;;0.90;;
4080;SDS011;2055;50.074;8.436;2023-05-31T04:19:37;1.00;;;0.90;;
4080;SDS011;2055;50.074;8.436;2023-05-31T04:22:02;1.00;;;0.90;;
4080;SDS011;2055;50.074;8.436;2023-05-31T04:24:30;1.25;;;1.15;;
4080;SDS011;2055;50.074;8.436;2023-05-31T04:26:56;2.60;;;2.40;;
4080;SDS011;2055;50.074;8.436;2023-05-31T04:29:21;8.13;;;1.70;;
4080;SDS011;2055;50.074;8.436;2023-05-31T04:31:47;2.30;;;1.30;;
4080;SDS011;2055;50.074;8.436;2023-05-31T04:34:13;1.47;;;1.30;;
4080;SDS011;2055;50.074;8.436;2023-05-31T04:36:42;1.10;;;1.00;;
4080;SDS011;2055;50.074;8.436;2023-05-31T04:39:09;1.10;;;1.00;;
4080;SDS011;2055;50.074;8.436;2023-05-31T04:41:39;0.90;;;0.80;;
4080;SDS011;2055;50.074;8.436;2023-05-31T04:44:05;1.17;;;1.13;;
4080;SDS011;2055;50.074;8.436;2023-05-31T04:46:31;1.00;;;0.90;;
4080;SDS011;2055;50.074;8.436;2023-05-31T04:48:57;1.67;;;1.38;;
4080;SDS011;2055;50.074;8.436;2023-05-31T04:51:23;2.17;;;2.00;;
4080;SDS011;2055;50.074;8.436;2023-05-31T04:53:48;0.90;;;0.80;;
4080;SDS011;2055;50.074;8.436;2023-05-31T04:56:14;1.00;;;0.90;;
4080;SDS011;2055;50.074;8.436;2023-05-31T04:58:40;1.03;;;1.00;;
4080;SDS011;2055;50.074;8.436;2023-05-31T05:01:06;0.90;;;0.80;;
4080;SDS011;2055;50.074;8.436;2023-05-31T05:03:32;3.38;;;1.60;;
4080;SDS011;2055;50.074;8.436;2023-05-31T05:06:00;0.80;;;0.70;;
4080;SDS011;2055;50.074;8.436;2023-05-31T05:08:36;1.10;;;1.00;;
4080;SDS011;2055;50.074;8.436;2023-05-31T05:11:01;1.60;;;1.50;;
4080;SDS011;2055;50.074;8.436;2023-05-31T05:13:27;1.97;;;1.87;;
4080;SDS011;2055;50.074;8.436;2023-05-31T05:15:54;1.30;;;1.20;;
4080;SDS011;2055;50.074;8.436;2023-05-31T05:18:20;1.42;;;1.33;;
4080;SDS011;2055;50.074;8.436;2023-05-31T05:20:45;1.30;;;1.20;;
4080;SDS011;2055;50.074;8.436;2023-05-31T05:23:11;1.93;;;1.83;;
4080;SDS011;2055;50.074;8.436;2023-05-31T05:25:36;1.20;;;1.10;;
4080;SDS011;2055;50.074;8.436;2023-05-31T05:28:02;1.30;;;1.20;;
4080;SDS011;2055;50.074;8.436;2023-05-31T05:30:28;1.37;;;1.27;;
4080;SDS011;2055;50.074;8.436;2023-05-31T05:32:53;1.50;;;1.40;;
4080;SDS011;2055;50.074;8.436;2023-05-31T05:35:19;12.80;;;1.63;;
4080;SDS011;2055;50.074;8.436;2023-05-31T05:37:45;1.67;;;1.47;;
4080;SDS011;2055;50.074;8.436;2023-05-31T05:40:10;8.73;;;3.10;;
4080;SDS011;2055;50.074;8.436;2023-05-31T05:42:37;1.67;;;1.57;;
4080;SDS011;2055;50.074;8.436;2023-05-31T05:45:05;1.10;;;1.00;;
4080;SDS011;2055;50.074;8.436;2023-05-31T05:47:32;1.60;;;1.50;;
4080;SDS011;2055;50.074;8.436;2023-05-31T05:49:58;1.10;;;1.00;;
4080;SDS011;2055;50.074;8.436;2023-05-31T05:52:24;1.90;;;1.80;;
4080;SDS011;2055;50.074;8.436;2023-05-31T05:54:50;1.10;;;1.00;;
4080;SDS011;2055;50.074;8.436;2023-05-31T05:57:15;1.00;;;0.90;;
4080;SDS011;2055;50.074;8.436;2023-05-31T05:59:41;8.90;;;1.67;;
4080;SDS011;2055;50.074;8.436;2023-05-31T06:02:07;4.70;;;3.90;;
4080;SDS011;2055;50.074;8.436;2023-05-31T06:04:33;3.50;;;3.33;;
4080;SDS011;2055;50.074;8.436;2023-05-31T06:06:58;1.10;;;1.00;;
4080;SDS011;2055;50.074;8.436;2023-05-31T06:09:24;5.87;;;2.40;;
4080;SDS011;2055;50.074;8.436;2023-05-31T06:11:49;1.40;;;1.30;;
4080;SDS011;2055;50.074;8.436;2023-05-31T06:14:15;13.13;;;4.20;;
4080;SDS011;2055;50.074;8.436;2023-05-31T06:16:40;1.40;;;1.30;;
4080;SDS011;2055;50.074;8.436;2023-05-31T06:19:06;9.37;;;1.83;;
4080;SDS011;2055;50.074;8.436;2023-05-31T06:21:31;4.70;;;1.50;;
4080;SDS011;2055;50.074;8.436;2023-05-31T06:23:57;1.50;;;1.40;;
4080;SDS011;2055;50.074;8.436;2023-05-31T06:26:23;1.47;;;1.37;;
4080;SDS011;2055;50.074;8.436;2023-05-31T06:28:48;2.60;;;2.40;;
4080;SDS011;2055;50.074;8.436;2023-05-31T06:31:15;1.90;;;1.80;;
4080;SDS011;2055;50.074;8.436;2023-05-31T06:33:41;2.10;;;1.83;;
4080;SDS011;2055;50.074;8.436;2023-05-31T06:36:07;1.60;;;1.50;;
4080;SDS011;2055;50.074;8.436;2023-05-31T06:38:32;20.10;;;9.77;;
4080;SDS011;2055;50.074;8.436;2023-05-31T06:40:58;6.47;;;3.77;;
4080;SDS011;2055;50.074;8.436;2023-05-31T06:43:24;1.50;;;1.40;;
4080;SDS011;2055;50.074;8.436;2023-05-31T06:45:50;453.20;;;212.13;;
4080;SDS011;2055;50.074;8.436;2023-05-31T06:48:15;650.60;;;257.77;;
4080;SDS011;2055;50.074;8.436;2023-05-31T06:50:41;482.83;;;190.30;;
4080;SDS011;2055;50.074;8.436;2023-05-31T06:53:07;62.07;;;25.30;;
4080;SDS011;2055;50.074;8.436;2023-05-31T06:55:34;3.93;;;2.67;;
4080;SDS011;2055;50.074;8.436;2023-05-31T06:58:00;25.27;;;7.57;;
4080;SDS011;2055;50.074;8.436;2023-05-31T07:00:26;21.73;;;5.37;;
4080;SDS011;2055;50.074;8.436;2023-05-31T07:02:51;11.73;;;3.93;;
4080;SDS011;2055;50.074;8.436;2023-05-31T07:05:17;2.40;;;2.10;;
4080;SDS011;2055;50.074;8.436;2023-05-31T07:07:43;2.33;;;2.13;;
4080;SDS011;2055;50.074;8.436;2023-05-31T07:10:08;2.30;;;2.10;;
4080;SDS011;2055;50.074;8.436;2023-05-31T07:12:34;2.33;;;2.13;;
4080;SDS011;2055;50.074;8.436;2023-05-31T07:15:00;1.80;;;1.70;;
4080;SDS011;2055;50.074;8.436;2023-05-31T07:17:25;3.93;;;2.13;;
4080;SDS011;2055;50.074;8.436;2023-05-31T07:19:51;1.90;;;1.80;;
4080;SDS011;2055;50.074;8.436;2023-05-31T07:22:16;1.60;;;1.50;;
4080;SDS011;2055;50.074;8.436;2023-05-31T07:24:42;3.90;;;3.23;;
4080;SDS011;2055;50.074;8.436;2023-05-31T07:27:08;2.00;;;1.90;;
4080;SDS011;2055;50.074;8.436;2023-05-31T07:29:35;3.63;;;3.43;;
4080;SDS011;2055;50.074;8.436;2023-05-31T07:32:01;1.73;;;1.63;;
4080;SDS011;2055;50.074;8.436;2023-05-31T07:34:26;1.60;;;1.50;;
4080;SDS011;2055;50.074;8.436;2023-05-31T07:36:52;1.60;;;1.50;;
4080;SDS011;2055;50.074;8.436;2023-05-31T07:39:17;1.80;;;1.70;;
4080;SDS011;2055;50.074;8.436;2023-05-31T07:41:45;5.23;;;2.30;;
4080;SDS011;2055;50.074;8.436;2023-05-31T07:44:11;1.73;;;1.63;;
4080;SDS011;2055;50.074;8.436;2023-05-31T07:46:37;6.40;;;1.80;;
4080;SDS011;2055;50.074;8.436;2023-05-31T07:49:02;1.63;;;1.53;;
4080;SDS011;2055;50.074;8.436;2023-05-31T07:51:28;2.47;;;2.27;;
4080;SDS011;2055;50.074;8.436;2023-05-31T07:53:55;1.97;;;1.87;;
4080;SDS011;2055;50.074;8.436;2023-05-31T07:56:21;1.50;;;1.40;;
4080;SDS011;2055;50.074;8.436;2023-05-31T07:58:47;25.50;;;8.80;;
4080;SDS011;2055;50.074;8.436;2023-05-31T08:01:13;1.60;;;1.50;;
4080;SDS011;2055;50.074;8.436;2023-05-31T08:03:40;2.93;;;2.37;;
4080;SDS011;2055;50.074;8.436;2023-05-31T08:06:06;1.50;;;1.40;;
4080;SDS011;2055;50.074;8.436;2023-05-31T08:08:32;3.43;;;2.10;;
4080;SDS011;2055;50.074;8.436;2023-05-31T08:10:58;1.10;;;1.00;;
4080;SDS011;2055;50.074;8.436;2023-05-31T08:13:24;2.80;;;1.43;;
4080;SDS011;2055;50.074;8.436;2023-05-31T08:15:50;1.30;;;1.20;;
4080;SDS011;2055;50.074;8.436;2023-05-31T08:18:16;3.03;;;1.83;;
4080;SDS011;2055;50.074;8.436;2023-05-31T08:20:42;1.87;;;1.77;;
4080;SDS011;2055;50.074;8.436;2023-05-31T08:23:08;2.03;;;1.57;;
4080;SDS011;2055;50.074;8.436;2023-05-31T08:25:34;1.80;;;1.70;;
4080;SDS011;2055;50.074;8.436;2023-05-31T08:27:59;1.60;;;1.50;;
4080;SDS011;2055;50.074;8.436;2023-05-31T08:30:25;2.93;;;2.10;;
4080;SDS011;2055;50.074;8.436;2023-05-31T08:32:50;1.80;;;1.70;;
4080;SDS011;2055;50.074;8.436;2023-05-31T08:35:17;1.77;;;1.67;;
4080;SDS011;2055;50.074;8.436;2023-05-31T08:37:43;1.20;;;1.10;;
4080;SDS011;2055;50.074;8.436;2023-05-31T08:40:09;2.97;;;1.70;;
4080;SDS011;2055;50.074;8.436;2023-05-31T08:42:38;1.10;;;1.00;;
4080;SDS011;2055;50.074;8.436;2023-05-31T08:45:10;1.10;;;1.00;;
4080;SDS011;2055;50.074;8.436;2023-05-31T08:47:36;1.20;;;1.10;;
4080;SDS011;2055;50.074;8.436;2023-05-31T08:50:09;1.53;;;1.43;;
4080;SDS011;2055;50.074;8.436;2023-05-31T08:52:36;2.73;;;1.80;;
4080;SDS011;2055;50.074;8.436;2023-05-31T08:55:02;1.30;;;1.20;;
4080;SDS011;2055;50.074;8.436;2023-05-31T08:57:29;1.20;;;1.10;;
4080;SDS011;2055;50.074;8.436;2023-05-31T08:59:56;1.10;;;1.00;;
4080;SDS011;2055;50.074;8.436;2023-05-31T09:02:23;1.50;;;1.40;;
4080;SDS011;2055;50.074;8.436;2023-05-31T09:04:50;1.20;;;1.10;;
4080;SDS011;2055;50.074;8.436;2023-05-31T09:07:16;1.30;;;1.20;;
4080;SDS011;2055;50.074;8.436;2023-05-31T09:09:42;1.33;;;1.23;;
4080;SDS011;2055;50.074;8.436;2023-05-31T09:12:08;1.43;;;1.33;;
4080;SDS011;2055;50.074;8.436;2023-05-31T09:14:33;2.17;;;1.87;;
4080;SDS011;2055;50.074;8.436;2023-05-31T09:16:59;1.80;;;1.60;;
4080;SDS011;2055;50.074;8.436;2023-05-31T09:19:25;2.70;;;2.03;;
4080;SDS011;2055;50.074;8.436;2023-05-31T09:21:51;1.53;;;1.43;;
4080;SDS011;2055;50.074;8.436;2023-05-31T09:24:17;1.50;;;1.40;;
4080;SDS011;2055;50.074;8.436;2023-05-31T09:26:51;4.97;;;1.53;;
4080;SDS011;2055;50.074;8.436;2023-05-31T09:29:17;1.47;;;1.37;;
4080;SDS011;2055;50.074;8.436;2023-05-31T09:31:44;1.50;;;1.40;;
4080;SDS011;2055;50.074;8.436;2023-05-31T09:34:26;1.50;;;1.40;;
4080;SDS011;2055;50.074;8.436;2023-05-31T09:36:57;2.30;;;2.10;;
4080;SDS011;2055;50.074;8.436;2023-05-31T09:39:24;12.53;;;1.80;;
4080;SDS011;2055;50.074;8.436;2023-05-31T09:41:50;2.50;;;1.67;;
4080;SDS011;2055;50.074;8.436;2023-05-31T09:44:16;1.47;;;1.30;;
4080;SDS011;2055;50.074;8.436;2023-05-31T09:46:44;1.60;;;1.50;;
4080;SDS011;2055;50.074;8.436;2023-05-31T09:49:11;1.27;;;1.17;;
4080;SDS011;2055;50.074;8.436;2023-05-31T09:51:37;1.20;;;1.10;;
4080;SDS011;2055;50.074;8.436;2023-05-31T09:54:08;4.27;;;1.83;;
4080;SDS011;2055;50.074;8.436;2023-05-31T09:56:36;1.33;;;1.23;;
4080;SDS011;2055;50.074;8.436;2023-05-31T09:59:02;3.63;;;1.60;;
4080;SDS011;2055;50.074;8.436;2023-05-31T10:01:29;1.90;;;1.70;;
4080;SDS011;2055;50.074;8.436;2023-05-31T10:03:55;2.13;;;1.97;;
4080;SDS011;2055;50.074;8.436;2023-05-31T10:06:24;2.57;;;2.37;;
4080;SDS011;2055;50.074;8.436;2023-05-31T10:08:50;2.20;;;2.00;;
4080;SDS011;2055;50.074;8.436;2023-05-31T10:11:16;2.20;;;1.70;;
4080;SDS011;2055;50.074;8.436;2023-05-31T10:13:47;1.67;;;1.57;;
4080;SDS011;2055;50.074;8.436;2023-05-31T10:16:15;1.97;;;1.87;;
4080;SDS011;2055;50.074;8.436;2023-05-31T10:18:44;7.27;;;2.33;;
4080;SDS011;2055;50.074;8.436;2023-05-31T10:24:01;1.83;;;1.73;;
4080;SDS011;2055;50.074;8.436;2023-05-31T10:26:35;2.43;;;2.23;;
4080;SDS011;2055;50.074;8.436;2023-05-31T10:29:23;3.20;;;3.00;;
4080;SDS011;2055;50.074;8.436;2023-05-31T10:31:51;5.13;;;1.70;;
4080;SDS011;2055;50.074;8.436;2023-05-31T10:34:26;1.93;;;1.83;;
4080;SDS011;2055;50.074;8.436;2023-05-31T10:36:52;1.60;;;1.50;;
4080;SDS011;2055;50.074;8.436;2023-05-31T10:39:26;1.70;;;1.60;;
4080;SDS011;2055;50.074;8.436;2023-05-31T10:44:39;3.37;;;2.87;;
4080;SDS011;2055;50.074;8.436;2023-05-31T10:47:12;2.20;;;2.00;;
4080;SDS011;2055;50.074;8.436;2023-05-31T10:49:41;3.50;;;1.90;;
4080;SDS011;2055;50.074;8.436;2023-05-31T10:52:09;2.10;;;2.00;;
4080;SDS011;2055;50.074;8.436;2023-05-31T10:54:35;2.00;;;1.90;;
4080;SDS011;2055;50.074;8.436;2023-05-31T10:57:02;2.63;;;2.43;;
4080;SDS011;2055;50.074;8.436;2023-05-31T10:59:38;1.90;;;1.80;;
4080;SDS011;2055;50.074;8.436;2023-05-31T11:02:06;2.70;;;2.50;;
4080;SDS011;2055;50.074;8.436;2023-05-31T11:04:33;2.40;;;2.20;;
4080;SDS011;2055;50.074;8.436;2023-05-31T11:07:15;2.77;;;2.57;;
4080;SDS011;2055;50.074;8.436;2023-05-31T11:09:54;6.53;;;1.90;;
4080;SDS011;2055;50.074;8.436;2023-05-31T11:12:34;1.63;;;1.53;;
4080;SDS011;2055;50.074;8.436;2023-05-31T11:15:02;1.93;;;1.83;;
4080;SDS011;2055;50.074;8.436;2023-05-31T11:17:28;2.00;;;1.90;;
4080;SDS011;2055;50.074;8.436;2023-05-31T11:19:54;2.10;;;1.97;;
4080;SDS011;2055;50.074;8.436;2023-05-31T11:22:24;1.50;;;1.40;;
4080;SDS011;2055;50.074;8.436;2023-05-31T11:24:51;1.80;;;1.70;;
4080;SDS011;2055;50.074;8.436;2023-05-31T11:27:20;2.30;;;2.10;;
4080;SDS011;2055;50.074;8.436;2023-05-31T11:32:16;2.23;;;2.03;;
4080;SDS011;2055;50.074;8.436;2023-05-31T11:37:16;1.90;;;1.80;;
4080;SDS011;2055;50.074;8.436;2023-05-31T11:39:44;2.20;;;2.00;;
4080;SDS011;2055;50.074;8.436;2023-05-31T11:42:10;5.20;;;4.90;;
4080;SDS011;2055;50.074;8.436;2023-05-31T11:44:41;2.83;;;2.63;;
4080;SDS011;2055;50.074;8.436;2023-05-31T11:47:11;2.83;;;2.63;;
4080;SDS011;2055;50.074;8.436;2023-05-31T11:49:43;3.00;;;2.80;;
4080;SDS011;2055;50.074;8.436;2023-05-31T11:52:10;2.70;;;2.50;;
4080;SDS011;2055;50.074;8.436;2023-05-31T11:54:41;2.57;;;2.37;;
4080;SDS011;2055;50.074;8.436;2023-05-31T11:57:08;1.80;;;1.70;;
4080;SDS011;2055;50.074;8.436;2023-05-31T11:59:35;1.60;;;1.50;;
4080;SDS011;2055;50.074;8.436;2023-05-31T12:02:03;3.03;;;2.60;;
4080;SDS011;2055;50.074;8.436;2023-05-31T12:04:31;1.90;;;1.80;;
4080;SDS011;2055;50.074;8.436;2023-05-31T12:07:05;1.50;;;1.40;;
4080;SDS011;2055;50.074;8.436;2023-05-31T12:09:32;2.60;;;2.40;;
4080;SDS011;2055;50.074;8.436;2023-05-31T12:11:59;2.20;;;2.00;;
4080;SDS011;2055;50.074;8.436;2023-05-31T12:14:28;1.93;;;1.83;;
4080;SDS011;2055;50.074;8.436;2023-05-31T12:16:53;1.93;;;1.83;;
4080;SDS011;2055;50.074;8.436;2023-05-31T12:19:19;2.20;;;2.03;;
4080;SDS011;2055;50.074;8.436;2023-05-31T12:21:45;1.90;;;1.80;;
4080;SDS011;2055;50.074;8.436;2023-05-31T12:24:12;2.47;;;2.27;;
4080;SDS011;2055;50.074;8.436;2023-05-31T12:26:40;6.20;;;2.70;;
4080;SDS011;2055;50.074;8.436;2023-05-31T12:29:08;1.90;;;1.80;;
4080;SDS011;2055;50.074;8.436;2023-05-31T12:31:36;2.33;;;2.13;;
4080;SDS011;2055;50.074;8.436;2023-05-31T12:36:43;2.20;;;2.00;;
4080;SDS011;2055;50.074;8.436;2023-05-31T12:39:20;5.43;;;3.07;;
4080;SDS011;2055;50.074;8.436;2023-05-31T12:41:47;3.03;;;2.83;;
4080;SDS011;2055;50.074;8.436;2023-05-31T12:44:18;2.40;;;2.20;;
4080;SDS011;2055;50.074;8.436;2023-05-31T12:46:45;2.33;;;2.13;;
4080;SDS011;2055;50.074;8.436;2023-05-31T12:49:21;2.00;;;1.90;;
4080;SDS011;2055;50.074;8.436;2023-05-31T12:54:29;1.90;;;1.80;;
4080;SDS011;2055;50.074;8.436;2023-05-31T12:56:58;2.60;;;2.40;;
4080;SDS011;2055;50.074;8.436;2023-05-31T12:59:26;3.27;;;3.07;;
4080;SDS011;2055;50.074;8.436;2023-05-31T13:01:53;3.30;;;3.00;;
4080;SDS011;2055;50.074;8.436;2023-05-31T13:04:18;3.30;;;3.10;;
4080;SDS011;2055;50.074;8.436;2023-05-31T13:06:44;2.50;;;2.30;;
4080;SDS011;2055;50.074;8.436;2023-05-31T13:09:10;4.73;;;2.43;;
4080;SDS011;2055;50.074;8.436;2023-05-31T13:11:37;2.40;;;2.20;;
4080;SDS011;2055;50.074;8.436;2023-05-31T13:14:03;2.70;;;2.50;;
4080;SDS011;2055;50.074;8.436;2023-05-31T13:16:30;2.47;;;2.27;;
4080;SDS011;2055;50.074;8.436;2023-05-31T13:18:57;1.80;;;1.70;;
4080;SDS011;2055;50.074;8.436;2023-05-31T13:21:23;2.30;;;2.10;;
4080;SDS011;2055;50.074;8.436;2023-05-31T13:23:49;2.93;;;2.73;;
4080;SDS011;2055;50.074;8.436;2023-05-31T13:26:15;2.60;;;2.40;;
4080;SDS011;2055;50.074;8.436;2023-05-31T13:28:41;2.40;;;2.20;;
4080;SDS011;2055;50.074;8.436;2023-05-31T13:31:06;2.50;;;2.30;;
4080;SDS011;2055;50.074;8.436;2023-05-31T13:33:33;5.23;;;2.47;;
4080;SDS011;2055;50.074;8.436;2023-05-31T13:35:59;2.70;;;2.50;;
4080;SDS011;2055;50.074;8.436;2023-05-31T13:38:25;2.30;;;2.10;;
4080;SDS011;2055;50.074;8.436;2023-05-31T13:40:51;2.93;;;2.73;;
4080;SDS011;2055;50.074;8.436;2023-05-31T13:43:17;2.30;;;2.10;;
4080;SDS011;2055;50.074;8.436;2023-05-31T13:45:43;2.60;;;2.40;;
4080;SDS011;2055;50.074;8.436;2023-05-31T13:48:12;10.63;;;2.70;;
4080;SDS011;2055;50.074;8.436;2023-05-31T13:50:40;2.50;;;2.30;;
4080;SDS011;2055;50.074;8.436;2023-05-31T13:53:06;2.77;;;2.57;;
4080;SDS011;2055;50.074;8.436;2023-05-31T13:55:33;2.23;;;2.03;;
4080;SDS011;2055;50.074;8.436;2023-05-31T13:57:58;2.43;;;2.23;;
4080;SDS011;2055;50.074;8.436;2023-05-31T14:00:24;1.60;;;1.50;;
4080;SDS011;2055;50.074;8.436;2023-05-31T14:02:50;2.07;;;1.93;;
4080;SDS011;2055;50.074;8.436;2023-05-31T14:05:16;1.93;;;1.83;;
4080;SDS011;2055;50.074;8.436;2023-05-31T14:07:42;2.00;;;1.90;;
4080;SDS011;2055;50.074;8.436;2023-05-31T14:10:08;1.90;;;1.80;;
4080;SDS011;2055;50.074;8.436;2023-05-31T14:12:34;2.60;;;2.27;;
4080;SDS011;2055;50.074;8.436;2023-05-31T14:15:00;2.00;;;1.90;;
4080;SDS011;2055;50.074;8.436;2023-05-31T14:17:26;6.43;;;2.57;;
4080;SDS011;2055;50.074;8.436;2023-05-31T14:19:51;2.70;;;2.50;;
4080;SDS011;2055;50.074;8.436;2023-05-31T14:22:17;2.60;;;2.40;;
4080;SDS011;2055;50.074;8.436;2023-05-31T14:24:42;2.40;;;2.20;;
4080;SDS011;2055;50.074;8.436;2023-05-31T14:27:08;1.87;;;1.77;;
4080;SDS011;2055;50.074;8.436;2023-05-31T14:29:33;1.83;;;1.73;;
4080;SDS011;2055;50.074;8.436;2023-05-31T14:31:59;1.60;;;1.50;;
4080;SDS011;2055;50.074;8.436;2023-05-31T14:34:25;1.40;;;1.30;;
4080;SDS011;2055;50.074;8.436;2023-05-31T14:36:51;2.30;;;2.10;;
4080;SDS011;2055;50.074;8.436;2023-05-31T14:39:17;1.73;;;1.63;;
4080;SDS011;2055;50.074;8.436;2023-05-31T14:41:42;2.67;;;2.47;;
4080;SDS011;2055;50.074;8.436;2023-05-31T14:44:08;2.77;;;2.57;;
4080;SDS011;2055;50.074;8.436;2023-05-31T14:46:33;3.03;;;2.57;;
4080;SDS011;2055;50.074;8.436;2023-05-31T14:48:59;2.70;;;2.20;;
4080;SDS011;2055;50.074;8.436;2023-05-31T14:51:24;3.20;;;3.00;;
4080;SDS011;2055;50.074;8.436;2023-05-31T14:53:53;2.00;;;1.90;;
4080;SDS011;2055;50.074;8.436;2023-05-31T14:56:18;3.10;;;2.20;;
4080;SDS011;2055;50.074;8.436;2023-05-31T14:58:44;2.73;;;2.53;;
4080;SDS011;2055;50.074;8.436;2023-05-31T15:01:10;2.57;;;2.37;;
4080;SDS011;2055;50.074;8.436;2023-05-31T15:03:36;2.53;;;2.33;;
4080;SDS011;2055;50.074;8.436;2023-05-31T15:06:02;4.17;;;2.40;;
4080;SDS011;2055;50.074;8.436;2023-05-31T15:08:28;2.47;;;2.27;;
4080;SDS011;2055;50.074;8.436;2023-05-31T15:10:54;1.53;;;1.40;;
4080;SDS011;2055;50.074;8.436;2023-05-31T15:13:20;1.53;;;1.43;;
4080;SDS011;2055;50.074;8.436;2023-05-31T15:15:45;1.70;;;1.63;;
4080;SDS011;2055;50.074;8.436;2023-05-31T15:18:11;1.57;;;1.43;;
4080;SDS011;2055;50.074;8.436;2023-05-31T15:20:36;1.70;;;1.60;;
4080;SDS011;2055;50.074;8.436;2023-05-31T15:23:02;1.30;;;1.20;;
4080;SDS011;2055;50.074;8.436;2023-05-31T15:25:27;1.57;;;1.47;;
4080;SDS011;2055;50.074;8.436;2023-05-31T15:27:53;2.93;;;2.07;;
4080;SDS011;2055;50.074;8.436;2023-05-31T15:30:18;1.50;;;1.40;;
4080;SDS011;2055;50.074;8.436;2023-05-31T15:32:44;3.10;;;2.90;;
4080;SDS011;2055;50.074;8.436;2023-05-31T15:35:11;1.80;;;1.70;;
4080;SDS011;2055;50.074;8.436;2023-05-31T15:37:36;2.20;;;2.00;;